Time;durP1;ratioP1;P1;durP2;ratioP2;P2;SDS_P1;SDS_P2;PMS_P1;PMS_P2;Temp;Humidity;BMP_temperature;BMP_pressure;BME280_temperature;BME280_humidity;BME280_pressure;Samples;Min_cycle;Max_cycle;Signal;HPM_P1;HPM_P2
2021/11/04 07:37:12;351594.00;1.17;606.60;0.00;0.00;0.62;;;;;10.50;1.00;;;;;;2587215;55;563;-90
2021/11/04 07:39:44;362312.00;1.21;625.02;0.00;0.00;0.62;;;;;10.60;1.00;;;;;;2586604;55;1121;-90
2021/11/04 07:42:12;499017.00;1.66;860.13;0.00;0.00;0.62;;;;;10.40;1.00;;;;;;2589073;55;1603;-90
2021/11/04 07:44:39;593304.00;1.98;1022.66;0.00;0.00;0.62;;;;;10.80;1.00;;;;;;2589221;55;1534;-90
2021/11/04 07:47:09;322646.00;1.08;556.85;0.00;0.00;0.62;;;;;10.90;1.00;;;;;;2589277;55;964;-90
2021/11/04 07:49:37;314204.00;1.05;542.34;0.00;0.00;0.62;;;;;10.90;1.00;;;;;;2589052;55;977;-90
2021/11/04 07:52:06;273813.00;0.91;472.90;0.00;0.00;0.62;;;;;11.50;1.00;;;;;;2589206;55;1949;-87
2021/11/04 07:54:35;324880.00;1.08;560.69;0.00;0.00;0.62;;;;;11.10;1.00;;;;;;2586741;55;983;-89
2021/11/04 07:57:03;328824.00;1.10;567.46;0.00;0.00;0.62;;;;;10.80;1.00;;;;;;2589170;55;1612;-88
2021/11/04 07:59:31;280684.00;0.94;484.71;0.00;0.00;0.62;;;;;10.80;1.00;;;;;;2586943;55;949;-88
2021/11/04 08:02:00;325646.00;1.09;562.00;0.00;0.00;0.62;;;;;10.80;1.00;;;;;;2589158;55;1788;-89
2021/11/04 08:04:27;234905.00;0.78;405.99;0.00;0.00;0.62;;;;;10.90;1.00;;;;;;2589265;55;1513;-90
2021/11/04 08:06:54;245359.00;0.82;423.97;0.00;0.00;0.62;;;;;10.50;1.00;;;;;;2589232;55;984;-88
2021/11/04 08:09:22;268263.00;0.89;463.36;0.00;0.00;0.62;;;;;10.60;1.00;;;;;;2578220;55;1073;-89
2021/11/04 08:11:50;225745.00;0.75;390.23;0.00;0.00;0.62;;;;;10.60;1.00;;;;;;2578195;55;1894;-87
2021/11/04 08:24:31;122952.00;0.41;213.17;0.00;0.00;0.62;;;;;10.40;1.00;;;;;;2591829;55;917;-84
2021/11/04 08:26:59;64218.00;0.21;111.77;0.00;0.00;0.62;;;;;10.40;1.00;;;;;;2585423;55;978;-87
2021/11/04 08:29:26;68474.00;0.23;119.12;0.00;0.00;0.62;;;;;10.70;1.00;;;;;;2585554;55;969;-87
2021/11/04 09:05:39;240874.00;0.80;416.25;0.00;0.00;0.62;;;;;10.20;1.00;;;;;;2586945;55;789;-83
2021/11/04 09:08:08;350123.00;1.17;604.07;57.00;0.00;0.72;;;;;10.50;1.00;;;;;;2585933;55;1061;-82
2021/11/04 09:10:35;278582.00;0.93;481.10;0.00;0.00;0.62;;;;;10.30;1.00;;;;;;2589243;55;981;-83
2021/11/04 09:13:02;365474.00;1.22;630.46;0.00;0.00;0.62;;;;;10.40;1.00;;;;;;2572651;55;1933;-85
2021/11/04 09:15:29;325715.00;1.09;562.12;0.00;0.00;0.62;;;;;10.30;1.00;;;;;;2573158;55;946;-83
2021/11/04 09:17:57;282834.00;0.94;488.41;0.00;0.00;0.62;;;;;10.20;1.00;;;;;;2573286;55;951;-83
2021/11/04 09:20:24;300058.00;1.00;518.02;0.00;0.00;0.62;;;;;10.00;1.00;;;;;;2567977;55;939;-82
2021/11/04 09:22:52;287522.00;0.96;496.47;0.00;0.00;0.62;;;;;9.90;1.00;;;;;;2555325;55;1341;-84
2021/11/04 09:38:05;434159.00;1.45;748.54;0.00;0.00;0.62;;;;;10.30;1.00;;;;;;2586566;55;913;-84
2021/11/04 09:40:33;298178.00;0.99;514.79;0.00;0.00;0.62;;;;;10.80;1.00;;;;;;2588863;55;1169;-86
2021/11/04 09:43:00;497894.00;1.66;858.20;0.00;0.00;0.62;;;;;10.90;1.00;;;;;;2577723;55;1123;-86
2021/11/04 09:45:28;457143.00;1.52;788.07;0.00;0.00;0.62;;;;;10.90;1.00;;;;;;2573511;55;1353;-86
2021/11/04 09:47:56;371530.00;1.24;640.87;0.00;0.00;0.62;;;;;10.80;1.00;;;;;;2569308;55;1102;-87
2021/11/04 09:50:25;437174.00;1.46;753.72;0.00;0.00;0.62;;;;;10.70;1.00;;;;;;2577721;55;1191;-87
2021/11/04 09:52:57;403490.00;1.34;695.80;0.00;0.00;0.62;;;;;10.70;1.00;;;;;;2577869;55;1941;-86
2021/11/04 09:55:28;470841.00;1.57;811.64;0.00;0.00;0.62;;;;;10.50;1.00;;;;;;2568499;55;1343;-87
2021/11/04 09:58:00;421446.00;1.40;726.68;0.00;0.00;0.62;;;;;10.50;1.00;;;;;;2567986;55;1238;-87
2021/11/04 10:00:34;181351.00;0.60;313.82;0.00;0.00;0.62;;;;;10.80;1.00;;;;;;2575247;55;1165;-86
2021/11/04 10:03:04;469039.00;1.56;808.54;0.00;0.00;0.62;;;;;10.20;1.00;;;;;;2579868;55;1162;-87
2021/11/04 10:05:40;426990.00;1.42;736.21;0.00;0.00;0.62;;;;;10.10;1.00;;;;;;2573702;55;1346;-87
2021/11/04 10:08:09;412654.00;1.38;711.56;0.00;0.00;0.62;;;;;10.20;1.00;;;;;;2582538;55;1235;-87
2021/11/04 10:10:37;503451.00;1.68;867.77;0.00;0.00;0.62;;;;;10.30;1.00;;;;;;2580390;55;1096;-87
2021/11/04 10:13:07;399743.00;1.33;689.36;0.00;0.00;0.62;;;;;10.30;1.00;;;;;;2581904;55;1902;-87
2021/11/04 10:15:36;389481.00;1.30;671.72;0.00;0.00;0.62;;;;;10.60;1.00;;;;;;2572896;55;1389;-87
2021/11/04 10:18:16;459608.00;1.53;792.31;0.00;0.00;0.62;;;;;10.70;1.00;;;;;;2582762;55;1172;-87
2021/11/04 10:20:43;433388.00;1.44;747.21;0.00;0.00;0.62;;;;;10.40;1.00;;;;;;2572936;55;1064;-87
2021/11/04 10:23:14;394491.00;1.31;680.33;0.00;0.00;0.62;;;;;10.10;1.00;;;;;;2580033;55;1129;-87
2021/11/04 10:25:42;512938.00;1.71;884.10;0.00;0.00;0.62;;;;;10.20;1.00;;;;;;2579725;55;1356;-87
2021/11/04 10:28:26;376626.00;1.26;649.63;0.00;0.00;0.62;;;;;10.60;1.00;;;;;;2579865;55;1512;-87
2021/11/04 10:30:53;443339.00;1.48;764.33;0.00;0.00;0.62;;;;;10.90;1.00;;;;;;2582221;55;1115;-87
2021/11/04 10:33:25;450509.00;1.50;776.66;0.00;0.00;0.62;;;;;10.90;1.00;;;;;;2582004;55;1966;-87
2021/11/04 10:35:59;390750.00;1.30;673.90;0.00;0.00;0.62;;;;;10.70;1.00;;;;;;2582019;55;1402;-87
2021/11/04 10:38:34;370317.00;1.23;638.78;0.00;0.00;0.62;;;;;10.60;1.00;;;;;;2579855;55;1116;-87
2021/11/04 10:41:04;364725.00;1.22;629.17;0.00;0.00;0.62;;;;;10.60;1.00;;;;;;2579521;55;1142;-87
2021/11/04 10:43:31;444691.00;1.48;766.65;0.00;0.00;0.62;;;;;10.90;1.00;;;;;;2578559;55;1072;-87
2021/11/04 10:46:07;447516.00;1.49;771.51;0.00;0.00;0.62;;;;;10.90;1.00;;;;;;2579198;55;1251;-87
2021/11/04 10:48:39;332210.00;1.11;573.28;0.00;0.00;0.62;;;;;11.00;1.00;;;;;;2581691;55;1125;-86
2021/11/04 10:51:06;450899.00;1.50;777.33;0.00;0.00;0.62;;;;;10.80;1.00;;;;;;2579347;55;1112;-87
2021/11/04 10:53:33;481935.00;1.61;830.73;0.00;0.00;0.62;;;;;10.50;1.00;;;;;;2581319;55;1956;-86
2021/11/04 10:56:20;400054.00;1.33;689.90;0.00;0.00;0.62;;;;;10.70;1.00;;;;;;2579021;55;1341;-87
2021/11/04 10:59:03;399704.00;1.33;689.30;0.00;0.00;0.62;;;;;11.00;1.00;;;;;;2579062;55;1200;-88
2021/11/04 11:01:41;346209.00;1.15;597.35;0.00;0.00;0.62;;;;;10.80;1.00;;;;;;2578892;55;1073;-88
2021/11/04 11:04:11;521214.00;1.74;898.36;48667.00;0.16;84.88;;;;;10.90;1.00;;;;;;2579732;55;1231;-87
2021/11/04 11:06:41;373972.00;1.25;645.06;0.00;0.00;0.62;;;;;10.70;1.00;;;;;;2579147;55;1539;-86
2021/11/04 11:09:10;545705.00;1.82;940.56;0.00;0.00;0.62;;;;;10.70;1.00;;;;;;2579590;55;1098;-86
2021/11/04 11:11:45;338239.00;1.13;583.65;0.00;0.00;0.62;;;;;10.60;1.00;;;;;;2579768;55;1964;-86
2021/11/04 11:14:12;349913.00;1.17;603.71;0.00;0.00;0.62;;;;;10.60;1.00;;;;;;2579767;55;1251;-87
2021/11/04 11:16:43;549416.00;1.83;946.95;0.00;0.00;0.62;;;;;10.90;1.00;;;;;;2581487;55;1453;-87
2021/11/04 11:19:11;336185.00;1.12;580.12;0.00;0.00;0.62;;;;;10.70;1.00;;;;;;2581742;55;1117;-87
2021/11/04 11:21:42;456391.00;1.52;786.78;0.00;0.00;0.62;;;;;10.40;1.00;;;;;;2570782;56;1045;-87
2021/11/04 11:24:11;446918.00;1.49;770.48;0.00;0.00;0.62;;;;;10.30;1.00;;;;;;2571073;56;1058;-87
2021/11/04 11:26:38;363747.00;1.21;627.49;0.00;0.00;0.62;;;;;10.60;1.00;;;;;;2569191;56;1392;-87
2021/11/04 11:29:07;445031.00;1.48;767.24;0.00;0.00;0.62;;;;;10.50;1.00;;;;;;2571653;55;1217;-86
2021/11/04 11:31:46;450409.00;1.50;776.49;0.00;0.00;0.62;;;;;10.10;1.00;;;;;;2571792;56;1961;-87
2021/11/04 11:34:27;390884.00;1.30;674.13;0.00;0.00;0.62;;;;;10.10;1.00;;;;;;2569852;56;1224;-87
2021/11/04 11:37:10;453930.00;1.51;782.54;90826.00;0.30;157.73;;;;;10.70;1.00;;;;;;2571799;56;1462;-87
2021/11/04 11:39:39;588920.00;1.96;1015.09;91663.00;0.31;159.18;;;;;11.10;1.00;;;;;;2567706;55;1235;-88
2021/11/04 11:42:15;453140.00;1.51;781.18;0.00;0.00;0.62;;;;;11.00;1.00;;;;;;2577926;55;1115;-86
2021/11/04 11:44:47;793708.00;2.65;1370.15;148033.00;0.49;256.42;;;;;10.60;1.00;;;;;;2582611;55;1156;-88
2021/11/04 11:47:16;496745.00;1.66;856.22;90120.00;0.30;156.51;;;;;10.50;1.00;;;;;;2583310;55;1422;-87
2021/11/04 11:49:45;574076.00;1.91;989.48;92609.00;0.31;160.81;;;;;10.60;1.00;;;;;;2581306;55;1126;-87
2021/11/04 11:52:47;319871.00;1.07;552.08;0.00;0.00;0.62;;;;;10.80;1.00;;;;;;2581084;55;1969;-87
2021/11/04 11:55:17;638399.00;2.13;1100.57;83816.00;0.28;145.63;;;;;11.50;1.00;;;;;;2566270;56;1347;-87
2021/11/04 11:58:21;456753.00;1.52;787.40;85953.00;0.29;149.32;;;;;11.80;1.00;;;;;;2563911;56;1212;-88
2021/11/04 12:01:00;454006.00;1.51;782.67;0.00;0.00;0.62;;;;;11.70;1.00;;;;;;2564406;56;1018;-86
2021/11/04 12:03:54;627311.00;2.09;1081.40;0.00;0.00;0.62;;;;;11.60;1.00;;;;;;2565454;56;1177;-87
2021/11/04 12:06:54;374397.00;1.25;645.79;0.00;0.00;0.62;;;;;11.50;1.00;;;;;;2565466;56;1702;-86
2021/11/04 12:09:39;334571.00;1.12;577.34;532.00;0.00;1.54;;;;;11.80;1.00;;;;;;2565310;56;1156;-87
2021/11/04 12:12:08;277131.00;0.92;478.60;0.00;0.00;0.62;;;;;11.90;1.00;;;;;;2565573;56;1908;-85
2021/11/04 12:14:38;388384.00;1.29;669.84;0.00;0.00;0.62;;;;;12.40;1.00;;;;;;2565389;56;1616;-84
2021/11/04 12:17:16;918366.00;3.06;1588.40;88048.00;0.29;152.94;;;;;12.40;1.00;;;;;;2565285;56;1371;-85
2021/11/04 12:19:46;517975.00;1.73;892.78;0.00;0.00;0.62;;;;;12.40;1.00;;;;;;2565511;56;1049;-85
2021/11/04 12:22:24;488590.00;1.63;842.18;10305.00;0.03;18.48;;;;;12.60;1.00;;;;;;2567657;55;1009;-85
2021/11/04 12:24:53;553589.00;1.85;954.15;0.00;0.00;0.62;;;;;12.60;1.00;;;;;;2565133;56;1794;-87
2021/11/04 12:27:21;348449.00;1.16;601.20;0.00;0.00;0.62;;;;;12.60;1.00;;;;;;2565276;56;1156;-87
2021/11/04 12:29:49;446858.00;1.49;770.38;0.00;0.00;0.62;;;;;12.30;1.00;;;;;;2567758;55;1077;-86
2021/11/04 12:32:19;574130.00;1.91;989.57;0.00;0.00;0.62;;;;;12.10;1.00;;;;;;2573593;55;1899;-87
2021/11/04 12:34:55;120734016.00;402.45;71293592.00;23787.00;0.08;41.83;;;;;12.10;1.00;;;;;;2581407;55;1184;-87
2021/11/04 12:37:26;365543.00;1.22;630.58;0.00;0.00;0.62;;;;;12.50;1.00;;;;;;2576612;55;1136;-88
2021/11/04 12:39:53;500984.00;1.67;863.52;0.00;0.00;0.62;;;;;12.70;1.00;;;;;;2583507;55;1054;-88
2021/11/04 12:42:21;406652.00;1.36;701.24;0.00;0.00;0.62;;;;;13.30;1.00;;;;;;2581232;55;1104;-87
2021/11/04 12:44:48;416078.00;1.39;717.45;0.00;0.00;0.62;;;;;12.50;1.00;;;;;;2574322;55;1160;-87
2021/11/04 12:47:20;671889.00;2.24;1158.52;0.00;0.00;0.62;;;;;12.00;1.00;;;;;;2578828;55;1433;-88
2021/11/04 12:49:47;472730.00;1.58;814.89;0.00;0.00;0.62;;;;;12.30;1.00;;;;;;2574488;55;1045;-87
2021/11/04 12:52:15;495891.00;1.65;854.75;0.00;0.00;0.62;;;;;12.70;1.00;;;;;;2583602;55;1931;-87
2021/11/04 12:54:44;427315.00;1.42;736.77;0.00;0.00;0.62;;;;;12.70;1.00;;;;;;2581386;55;993;-88
2021/11/04 12:57:14;391456.00;1.30;675.12;0.00;0.00;0.62;;;;;12.60;1.00;;;;;;2574625;55;1327;-87
2021/11/04 12:59:44;485227.00;1.62;836.39;0.00;0.00;0.62;;;;;12.80;1.00;;;;;;2572944;55;932;-87
2021/11/04 13:02:13;556503.00;1.86;959.17;7514.00;0.03;13.64;;;;;12.60;1.00;;;;;;2570593;55;1027;-86
2021/11/04 13:04:43;619549.00;2.07;1067.99;0.00;0.00;0.62;;;;;12.60;1.00;;;;;;2568591;55;941;-86
2021/11/04 13:07:11;536888.00;1.79;925.36;0.00;0.00;0.62;;;;;12.80;1.00;;;;;;2572921;55;1427;-88
2021/11/04 13:09:44;505484.00;1.68;871.27;0.00;0.00;0.62;;;;;12.50;1.00;;;;;;2573078;55;976;-87
2021/11/04 13:12:13;321125.00;1.07;554.23;0.00;0.00;0.62;;;;;12.10;1.00;;;;;;2564148;55;1944;-84
2021/11/04 13:15:01;584688.00;1.95;1007.79;2624.00;0.01;5.17;;;;;12.10;1.00;;;;;;2564292;55;1011;-87
2021/11/04 13:17:44;204412.00;0.68;353.52;0.00;0.00;0.62;;;;;12.80;1.00;;;;;;2571974;55;1211;-86
2021/11/04 13:20:14;202641.00;0.68;350.47;0.00;0.00;0.62;;;;;13.20;1.00;;;;;;2565196;55;1176;-87
2021/11/04 13:22:44;250602.00;0.84;432.99;0.00;0.00;0.62;;;;;13.50;1.00;;;;;;2565160;55;1144;-87
2021/11/04 13:25:14;269648.00;0.90;465.74;0.00;0.00;0.62;;;;;13.40;1.00;;;;;;2577994;55;1276;-87
2021/11/04 13:27:42;277259.00;0.92;478.82;0.00;0.00;0.62;;;;;13.50;1.00;;;;;;2578386;55;1143;-87
2021/11/04 13:30:10;192113.00;0.64;332.35;0.00;0.00;0.62;;;;;13.80;1.00;;;;;;2583854;55;1049;-87
2021/11/04 13:32:37;118967168.00;396.56;68206448.00;0.00;0.00;0.62;;;;;14.00;1.00;;;;;;2574593;55;1947;-88
2021/11/04 13:35:06;164640.00;0.55;285.03;0.00;0.00;0.62;;;;;13.70;1.00;;;;;;2578825;55;1400;-86
2021/11/04 13:37:34;370722.00;1.24;639.48;0.00;0.00;0.62;;;;;13.40;1.00;;;;;;2583196;55;1183;-87
2021/11/04 13:40:02;280739.00;0.94;484.81;0.00;0.00;0.62;;;;;13.10;1.00;;;;;;2578423;55;1212;-88
2021/11/04 13:42:32;293211.00;0.98;506.25;0.00;0.00;0.62;;;;;13.10;1.00;;;;;;2573973;55;1117;-88
2021/11/04 13:45:08;263171.00;0.88;454.60;0.00;0.00;0.62;;;;;13.20;1.00;;;;;;2573966;55;1404;-87
2021/11/04 13:47:36;319325.00;1.06;551.14;0.00;0.00;0.62;;;;;13.20;1.00;;;;;;2571620;56;1183;-88
2021/11/04 13:50:05;263540.00;0.88;455.24;0.00;0.00;0.62;;;;;13.20;1.00;;;;;;2569374;55;1678;-87
2021/11/04 13:52:35;284902.00;0.95;491.97;0.00;0.00;0.62;;;;;13.30;1.00;;;;;;2559300;56;1951;-88
2021/11/04 13:55:03;262763.00;0.88;453.90;0.00;0.00;0.62;;;;;13.10;1.00;;;;;;2569854;56;1344;-88
2021/11/04 13:57:31;252268.00;0.84;435.85;0.00;0.00;0.62;;;;;13.30;1.00;;;;;;2571768;56;1158;-86
2021/11/04 13:59:59;426166.00;1.42;734.79;0.00;0.00;0.62;;;;;12.90;1.00;;;;;;2569351;55;1255;-88
2021/11/04 14:02:28;326872.00;1.09;564.11;0.00;0.00;0.62;;;;;12.60;1.00;;;;;;2563535;56;1188;-88
2021/11/04 14:04:57;393485.00;1.31;678.61;0.00;0.00;0.62;;;;;13.00;1.00;;;;;;2565780;55;1372;-87
2021/11/04 14:07:29;596389.00;1.99;1027.99;0.00;0.00;0.62;;;;;13.40;1.00;;;;;;2583514;55;1093;-87
2021/11/04 14:09:59;441624.00;1.47;761.38;0.00;0.00;0.62;;;;;13.80;1.00;;;;;;2576943;55;1112;-87
2021/11/04 14:12:28;296507.00;0.99;511.92;0.00;0.00;0.62;;;;;13.80;1.00;;;;;;2574434;56;1959;-87
2021/11/04 14:14:56;527293.00;1.76;908.83;0.00;0.00;0.62;;;;;14.00;1.00;;;;;;2574166;55;1387;-86
2021/11/04 14:17:27;451747.00;1.51;778.79;0.00;0.00;0.62;;;;;13.80;1.00;;;;;;2572958;56;1093;-86
2021/11/04 14:19:55;474658.00;1.58;818.20;0.00;0.00;0.62;;;;;13.90;1.00;;;;;;2573545;56;1075;-87
2021/11/04 14:22:23;119010440.00;396.70;68280976.00;21630.00;0.07;38.09;;;;;13.90;1.00;;;;;;2576844;55;1062;-87
2021/11/04 14:24:50;658897.00;2.20;1136.03;0.00;0.00;0.62;;;;;14.00;1.00;;;;;;2567532;55;1243;-87
2021/11/04 14:27:19;506325.00;1.69;872.71;0.00;0.00;0.62;;;;;14.00;1.00;;;;;;2575682;55;1123;-87
2021/11/04 14:29:46;295465.00;0.98;510.12;0.00;0.00;0.62;;;;;14.20;1.00;;;;;;2583208;55;1179;-87
2021/11/04 14:32:15;562109.00;1.87;968.84;85943.00;0.29;149.30;;;;;13.80;1.00;;;;;;2581050;55;1081;-88
2021/11/04 14:34:42;817754.00;2.73;1412.10;89684.00;0.30;155.76;;;;;13.60;1.00;;;;;;2581075;55;1958;-88
2021/11/04 14:44:49;314208.00;1.05;542.34;91488.00;0.30;158.88;;;;;13.80;1.00;;;;;;2587019;55;577;-87
2021/11/04 14:47:16;540240.00;1.80;931.14;81394.00;0.27;141.45;;;;;13.50;1.00;;;;;;2575818;55;1001;-89
2021/11/04 14:49:43;404452.00;1.35;697.46;76262.00;0.25;132.58;;;;;13.30;1.00;;;;;;2589319;55;993;-87
2021/11/04 14:52:11;469705.00;1.57;809.68;105055.00;0.35;182.30;;;;;13.90;1.00;;;;;;2580222;55;1321;-88
2021/11/04 14:54:38;351712.00;1.17;606.80;80723.00;0.27;140.29;;;;;14.00;1.00;;;;;;2580168;55;1968;-89
2021/11/04 14:57:09;295427.00;0.98;510.06;93919.00;0.31;163.07;;;;;13.80;1.00;;;;;;2578372;55;936;-88
2021/11/04 14:59:36;472877.00;1.58;815.14;95402.00;0.32;165.63;;;;;13.30;1.00;;;;;;2569771;55;944;-88
2021/11/04 15:02:04;284211.00;0.95;490.78;98592.00;0.33;171.14;;;;;13.10;1.00;;;;;;2578441;55;1423;-87
2021/11/04 15:04:31;284505.00;0.95;491.28;90851.00;0.30;157.78;;;;;13.10;1.00;;;;;;2569801;55;1006;-87
2021/11/04 15:06:58;397240.00;1.32;685.06;100524.00;0.34;174.48;;;;;13.00;1.00;;;;;;2569777;55;970;-87
2021/11/04 15:09:25;326785.00;1.09;563.96;101295.00;0.34;175.81;;;;;12.70;1.00;;;;;;2573992;55;991;-90
2021/11/04 15:11:52;250115.00;0.83;432.15;82805.00;0.28;143.88;;;;;12.50;1.00;;;;;;2568102;56;1228;-87
2021/11/04 15:14:21;376246.00;1.25;648.97;86800.00;0.29;150.78;;;;;12.70;1.00;;;;;;2565161;55;1899;-88
2021/11/04 15:16:49;343263.00;1.14;592.28;99873.00;0.33;173.35;;;;;12.50;1.00;;;;;;2562916;56;1007;-89
2021/11/04 15:19:17;542046.00;1.81;934.25;89591.00;0.30;155.60;;;;;12.50;1.00;;;;;;2557687;56;953;-88
2021/11/04 15:21:44;353879.00;1.18;610.53;89904.00;0.30;156.14;;;;;12.10;1.00;;;;;;2557710;56;1352;-89
2021/11/04 15:24:11;305479.00;1.02;527.34;88357.00;0.29;153.47;;;;;11.40;1.00;;;;;;2557756;56;945;-88
2021/11/04 15:26:38;388032.00;1.29;669.23;96250.00;0.32;167.10;;;;;11.50;1.00;;;;;;2557958;56;1019;-88
2021/11/04 15:29:05;467887.00;1.56;806.55;84000.00;0.28;145.95;;;;;11.60;1.00;;;;;;2558605;56;993;-88
2021/11/04 15:31:32;317386.00;1.06;547.81;87487.00;0.29;151.97;;;;;11.80;1.00;;;;;;2562865;56;1309;-89
2021/11/04 15:33:59;595865.00;1.99;1027.08;101409.00;0.34;176.00;;;;;11.90;1.00;;;;;;2563551;55;1949;-88
2021/11/04 15:36:28;338536.00;1.13;584.16;104318.00;0.35;181.02;;;;;12.20;1.00;;;;;;2569459;55;1018;-88
2021/11/04 15:38:55;287330.00;0.96;496.14;82245.00;0.27;142.92;;;;;12.50;1.00;;;;;;2578719;55;997;-88
2021/11/04 15:41:22;523522.00;1.75;902.33;193851.00;0.65;335.34;;;;;12.80;1.00;;;;;;2578794;55;1446;-88
2021/11/04 15:43:50;9187.00;0.03;16.54;0.00;0.00;0.62;;;;;13.00;1.00;;;;;;2563120;56;928;-87
2021/11/04 15:46:17;13850.00;0.05;24.62;0.00;0.00;0.62;;;;;12.80;1.00;;;;;;2554682;56;988;-89
2021/11/04 15:48:44;25857.00;0.09;45.41;0.00;0.00;0.62;;;;;13.00;1.00;;;;;;2565131;55;939;-89
2021/11/04 15:51:11;21037.00;0.07;37.07;0.00;0.00;0.62;;;;;12.80;1.00;;;;;;2574176;55;1411;-88
2021/11/04 15:53:45;55786.00;0.19;97.19;0.00;0.00;0.62;;;;;13.00;1.00;;;;;;2574158;55;1899;-87
2021/11/04 15:56:13;97172.00;0.32;168.69;0.00;0.00;0.62;;;;;13.30;1.00;;;;;;2578540;55;954;-89
2021/11/04 15:58:40;58203.00;0.19;101.37;0.00;0.00;0.62;;;;;13.50;1.00;;;;;;2574191;55;963;-89
2021/11/04 16:01:07;56945.00;0.19;99.20;0.00;0.00;0.62;;;;;13.40;1.00;;;;;;2576011;55;1353;-88
2021/11/04 16:03:35;114.00;0.00;0.82;0.00;0.00;0.62;;;;;13.30;1.00;;;;;;2580339;55;936;-87
2021/11/04 16:06:02;47166.00;0.16;82.28;0.00;0.00;0.62;;;;;13.40;1.00;;;;;;2576053;55;979;-90
2021/11/04 16:08:29;20866.00;0.07;36.77;0.00;0.00;0.62;;;;;13.60;1.00;;;;;;2575899;55;994;-88
2021/11/04 16:10:58;0.00;0.00;0.62;0.00;0.00;0.62;;;;;13.30;1.00;;;;;;2573288;55;1335;-88
2021/11/04 16:15:53;337003.00;1.12;581.52;0.00;0.00;0.62;;;;;12.80;1.00;;;;;;2585138;55;597;-87
2021/11/04 16:18:20;352964.00;1.18;608.96;0.00;0.00;0.62;;;;;12.60;1.00;;;;;;2577232;55;1064;-88
2021/11/04 16:20:47;325445.00;1.08;561.66;0.00;0.00;0.62;;;;;12.50;1.00;;;;;;2577305;55;1164;-88
2021/11/04 16:23:14;238834.00;0.80;412.75;0.00;0.00;0.62;;;;;12.90;1.00;;;;;;2577472;55;1264;-89
2021/11/04 16:25:41;282383.00;0.94;487.63;0.00;0.00;0.62;;;;;12.80;1.00;;;;;;2584674;55;1090;-89
2021/11/04 16:28:11;266525.00;0.89;460.37;0.00;0.00;0.62;;;;;12.70;1.00;;;;;;2577486;55;1151;-89
2021/11/04 16:30:38;288119.00;0.96;497.50;0.00;0.00;0.62;;;;;12.70;1.00;;;;;;2584216;55;1156;-89
2021/11/04 16:33:05;248773.00;0.83;429.84;0.00;0.00;0.62;;;;;12.70;1.00;;;;;;2586395;55;1337;-88
2021/11/04 16:35:32;361359.00;1.20;623.38;24087.00;0.08;42.35;;;;;12.60;1.00;;;;;;2586777;55;1183;-88
2021/11/04 16:37:59;265293.00;0.88;458.25;0.00;0.00;0.62;;;;;12.20;1.00;;;;;;2586579;55;1197;-89
2021/11/04 16:40:27;357901.00;1.19;617.44;0.00;0.00;0.62;;;;;12.30;1.00;;;;;;2586305;55;1089;-86
2021/11/04 16:42:55;198828.00;0.66;343.91;0.00;0.00;0.62;;;;;12.40;1.00;;;;;;2586622;55;1254;-85
2021/11/04 16:45:24;657609.00;2.19;1133.80;82936.00;0.28;144.11;;;;;12.10;1.00;;;;;;2585759;55;1170;-87
2021/11/04 16:47:52;268547.00;0.90;463.85;0.00;0.00;0.62;;;;;11.80;1.00;;;;;;2583900;55;1207;-87
2021/11/04 16:50:19;226489.00;0.75;391.51;0.00;0.00;0.62;;;;;12.20;1.00;;;;;;2584212;55;1195;-88
2021/11/04 16:52:47;285456.00;0.95;492.92;0.00;0.00;0.62;;;;;12.20;1.00;;;;;;2583763;55;1259;-86
2021/11/04 16:55:14;366171.00;1.22;631.66;0.00;0.00;0.62;;;;;12.60;1.00;;;;;;2576639;55;1915;-89
2021/11/04 16:57:41;365227.00;1.22;630.03;0.00;0.00;0.62;;;;;12.60;1.00;;;;;;2583982;55;1097;-88
2021/11/04 17:00:11;366901.00;1.22;632.91;0.00;0.00;0.62;;;;;12.80;1.00;;;;;;2585467;55;1251;-88
2021/11/04 17:02:42;189786.00;0.63;328.34;0.00;0.00;0.62;;;;;12.80;1.00;;;;;;2584180;55;1295;-88
2021/11/04 17:05:09;275728.00;0.92;476.19;0.00;0.00;0.62;;;;;12.50;1.00;;;;;;2586226;55;1911;-89
2021/11/04 17:07:36;410647.00;1.37;708.11;0.00;0.00;0.62;;;;;12.30;1.00;;;;;;2584105;55;1116;-89
2021/11/04 17:10:05;186601.00;0.62;322.86;0.00;0.00;0.62;;;;;12.00;1.00;;;;;;2584501;55;1123;-89
2021/11/04 17:12:32;250978.00;0.84;433.63;0.00;0.00;0.62;;;;;12.40;1.00;;;;;;2586074;55;1103;-89
2021/11/04 17:15:00;272995.00;0.91;471.49;0.00;0.00;0.62;;;;;12.90;1.00;;;;;;2583915;55;1890;-89
2021/11/04 17:17:28;203512.00;0.68;351.97;0.00;0.00;0.62;;;;;13.10;1.00;;;;;;2584448;55;1101;-89
2021/11/04 17:19:56;231528.00;0.77;400.18;0.00;0.00;0.62;;;;;13.10;1.00;;;;;;2585686;55;1121;-89
2021/11/04 17:22:25;429412.00;1.43;740.37;74339.00;0.25;129.26;;;;;13.00;1.00;;;;;;2586555;55;1207;-89
2021/11/04 17:24:52;283248.00;0.94;489.12;0.00;0.00;0.62;;;;;13.00;1.00;;;;;;2586377;55;1332;-89
2021/11/04 17:27:20;362512.00;1.21;625.37;0.00;0.00;0.62;;;;;12.60;1.00;;;;;;2586409;55;966;-87
2021/11/04 17:29:47;307472.00;1.02;530.76;0.00;0.00;0.62;;;;;12.50;1.00;;;;;;2577912;55;964;-89
2021/11/04 17:32:15;215769.00;0.72;373.06;0.00;0.00;0.62;;;;;12.80;1.00;;;;;;2573671;55;1096;-88
2021/11/04 17:34:42;197110.00;0.66;340.95;0.00;0.00;0.62;;;;;12.40;1.00;;;;;;2565066;55;1953;-87
2021/11/04 17:37:10;199239.00;0.66;344.61;0.00;0.00;0.62;;;;;11.70;1.00;;;;;;2573370;55;1156;-89
2021/11/04 17:39:37;199195.00;0.66;344.54;0.00;0.00;0.62;;;;;11.40;1.00;;;;;;2562633;55;1191;-90
2021/11/04 17:42:04;266051.00;0.89;459.55;0.00;0.00;0.62;;;;;11.70;1.00;;;;;;2573101;56;1161;-89
2021/11/04 17:44:31;320703.00;1.07;553.51;0.00;0.00;0.62;;;;;11.60;1.00;;;;;;2572418;56;1341;-90
2021/11/04 17:46:58;295800.00;0.99;510.70;0.00;0.00;0.62;;;;;11.60;1.00;;;;;;2572153;55;1227;-89
2021/11/04 17:49:26;251901.00;0.84;435.22;0.00;0.00;0.62;;;;;12.00;1.00;;;;;;2587039;55;1104;-89
2021/11/04 17:51:54;170319.00;0.57;294.82;0.00;0.00;0.62;;;;;11.70;1.00;;;;;;2584555;55;1074;-89
2021/11/04 17:54:24;326120.00;1.09;562.82;12678.00;0.04;22.59;;;;;11.60;1.00;;;;;;2583938;55;1984;-89
2021/11/04 17:56:51;342117.00;1.14;590.31;0.00;0.00;0.62;;;;;11.40;1.00;;;;;;2583976;55;1176;-89
2021/11/04 17:59:19;221130.00;0.74;382.29;0.00;0.00;0.62;;;;;11.40;1.00;;;;;;2586276;55;1661;-89
2021/11/04 18:01:47;293343.00;0.98;506.48;0.00;0.00;0.62;;;;;11.20;1.00;;;;;;2583844;55;1147;-89
2021/11/04 18:04:14;180811.00;0.60;312.89;0.00;0.00;0.62;;;;;11.10;1.00;;;;;;2576336;55;1374;-89
2021/11/04 18:06:41;185662.00;0.62;321.24;0.00;0.00;0.62;;;;;11.20;1.00;;;;;;2576521;55;1227;-89
2021/11/04 18:09:10;378102.00;1.26;652.16;0.00;0.00;0.62;;;;;11.20;1.00;;;;;;2583497;55;1142;-88
2021/11/04 18:11:38;215022.00;0.72;371.78;0.00;0.00;0.62;;;;;10.90;1.00;;;;;;2586049;55;1139;-88
2021/11/04 18:14:06;350268.00;1.17;604.32;39324.00;0.13;68.72;;;;;10.90;1.00;;;;;;2583229;55;1979;-88
2021/11/04 18:16:34;293473.00;0.98;506.70;0.00;0.00;0.62;;;;;11.00;1.00;;;;;;2586277;55;1070;-88
2021/11/04 18:19:02;316463.00;1.05;546.22;0.00;0.00;0.62;;;;;10.90;1.00;;;;;;2576399;55;1231;-89
2021/11/04 18:21:29;446706.00;1.49;770.12;56611.00;0.19;98.62;;;;;11.00;1.00;;;;;;2576876;55;1212;-89
2021/11/04 18:23:56;203006.00;0.68;351.10;0.00;0.00;0.62;;;;;11.10;1.00;;;;;;2585841;55;1341;-88
2021/11/04 18:26:24;264118.00;0.88;456.23;0.00;0.00;0.62;;;;;11.20;1.00;;;;;;2582801;55;1169;-89
2021/11/04 18:28:53;266675.00;0.89;460.63;0.00;0.00;0.62;;;;;11.40;1.00;;;;;;2586065;55;1108;-88
2021/11/04 18:31:20;241921.00;0.81;418.06;0.00;0.00;0.62;;;;;11.20;1.00;;;;;;2576736;55;1185;-89
2021/11/04 18:33:47;270827.00;0.90;467.77;0.00;0.00;0.62;;;;;11.20;1.00;;;;;;2582690;55;1961;-89
2021/11/04 18:36:14;211626.00;0.71;365.93;0.00;0.00;0.62;;;;;11.40;1.00;;;;;;2569805;56;1123;-88
2021/11/04 18:38:41;214379.00;0.71;370.67;0.00;0.00;0.62;;;;;11.10;1.00;;;;;;2568207;56;1212;-89
2021/11/04 18:41:08;422222.00;1.41;728.01;0.00;0.00;0.62;;;;;10.60;1.00;;;;;;2571259;56;1176;-89
2021/11/04 18:43:36;315492.00;1.05;544.55;23476.00;0.08;41.29;;;;;10.50;1.00;;;;;;2572100;55;1343;-88
2021/11/04 18:46:09;278896.00;0.93;481.64;0.00;0.00;0.62;;;;;10.40;1.00;;;;;;2571835;56;1116;-88